sensor_id;sensor_type;location;lat;lon;timestamp;P1;durP1;ratioP1;P2;durP2;ratioP2
62693;SDS011;48759;52.544;13.418;2023-05-20T00:01:47;5.40;;;4.33;;
62693;SDS011;48759;52.544;13.418;2023-05-20T00:04:14;9.60;;;4.20;;
62693;SDS011;48759;52.544;13.418;2023-05-20T00:06:41;6.33;;;4.17;;
62693;SDS011;48759;52.544;13.418;2023-05-20T00:09:08;6.13;;;3.97;;
62693;SDS011;48759;52.544;13.418;2023-05-20T00:11:34;7.57;;;4.37;;
62693;SDS011;48759;52.544;13.418;2023-05-20T00:14:01;4.40;;;4.00;;
62693;SDS011;48759;52.544;13.418;2023-05-20T00:16:30;7.33;;;4.47;;
62693;SDS011;48759;52.544;13.418;2023-05-20T00:18:56;5.10;;;4.53;;
62693;SDS011;48759;52.544;13.418;2023-05-20T00:21:23;8.50;;;4.13;;
62693;SDS011;48759;52.544;13.418;2023-05-20T00:23:50;6.93;;;4.10;;
62693;SDS011;48759;52.544;13.418;2023-05-20T00:26:16;8.50;;;4.50;;
62693;SDS011;48759;52.544;13.418;2023-05-20T00:28:43;5.20;;;4.70;;
62693;SDS011;48759;52.544;13.418;2023-05-20T00:31:10;5.30;;;4.37;;
62693;SDS011;48759;52.544;13.418;2023-05-20T00:33:39;4.23;;;3.80;;
62693;SDS011;48759;52.544;13.418;2023-05-20T00:36:06;7.43;;;4.50;;
62693;SDS011;48759;52.544;13.418;2023-05-20T00:38:33;12.00;;;4.63;;
62693;SDS011;48759;52.544;13.418;2023-05-20T00:41:00;7.30;;;4.60;;
62693;SDS011;48759;52.544;13.418;2023-05-20T00:43:27;6.43;;;4.53;;
62693;SDS011;48759;52.544;13.418;2023-05-20T00:45:54;9.10;;;5.07;;
62693;SDS011;48759;52.544;13.418;2023-05-20T00:48:21;6.70;;;4.90;;
62693;SDS011;48759;52.544;13.418;2023-05-20T00:50:49;5.80;;;4.80;;
62693;SDS011;48759;52.544;13.418;2023-05-20T00:53:17;9.37;;;5.40;;
62693;SDS011;48759;52.544;13.418;2023-05-20T00:55:44;5.70;;;4.60;;
62693;SDS011;48759;52.544;13.418;2023-05-20T00:58:10;6.20;;;4.40;;
62693;SDS011;48759;52.544;13.418;2023-05-20T01:00:37;8.53;;;4.50;;
62693;SDS011;48759;52.544;13.418;2023-05-20T01:03:04;5.47;;;4.67;;
62693;SDS011;48759;52.544;13.418;2023-05-20T01:05:31;7.97;;;5.10;;
62693;SDS011;48759;52.544;13.418;2023-05-20T01:07:59;11.27;;;4.63;;
62693;SDS011;48759;52.544;13.418;2023-05-20T01:10:26;11.13;;;5.23;;
62693;SDS011;48759;52.544;13.418;2023-05-20T01:12:56;9.53;;;5.20;;
62693;SDS011;48759;52.544;13.418;2023-05-20T01:15:29;6.93;;;5.57;;
62693;SDS011;48759;52.544;13.418;2023-05-20T01:17:57;7.60;;;5.23;;
62693;SDS011;48759;52.544;13.418;2023-05-20T01:20:27;6.93;;;4.93;;
62693;SDS011;48759;52.544;13.418;2023-05-20T01:22:57;8.53;;;4.70;;
62693;SDS011;48759;52.544;13.418;2023-05-20T01:25:24;7.87;;;4.80;;
62693;SDS011;48759;52.544;13.418;2023-05-20T01:27:51;16.23;;;5.10;;
62693;SDS011;48759;52.544;13.418;2023-05-20T01:30:19;7.00;;;5.37;;
62693;SDS011;48759;52.544;13.418;2023-05-20T01:32:47;9.77;;;5.37;;
62693;SDS011;48759;52.544;13.418;2023-05-20T01:35:17;8.13;;;4.90;;
62693;SDS011;48759;52.544;13.418;2023-05-20T01:37:44;6.37;;;4.40;;
62693;SDS011;48759;52.544;13.418;2023-05-20T01:40:14;9.30;;;5.50;;
62693;SDS011;48759;52.544;13.418;2023-05-20T01:42:43;6.90;;;4.87;;
62693;SDS011;48759;52.544;13.418;2023-05-20T01:45:11;10.87;;;4.50;;
62693;SDS011;48759;52.544;13.418;2023-05-20T01:47:37;6.97;;;4.73;;
62693;SDS011;48759;52.544;13.418;2023-05-20T01:50:05;9.13;;;5.30;;
62693;SDS011;48759;52.544;13.418;2023-05-20T01:52:32;6.97;;;5.00;;
62693;SDS011;48759;52.544;13.418;2023-05-20T01:55:00;6.37;;;5.00;;
62693;SDS011;48759;52.544;13.418;2023-05-20T01:57:28;8.40;;;4.50;;
62693;SDS011;48759;52.544;13.418;2023-05-20T01:59:56;7.63;;;4.80;;
62693;SDS011;48759;52.544;13.418;2023-05-20T02:02:22;6.97;;;5.60;;
62693;SDS011;48759;52.544;13.418;2023-05-20T02:04:49;5.00;;;4.50;;
62693;SDS011;48759;52.544;13.418;2023-05-20T02:07:17;12.43;;;4.97;;
62693;SDS011;48759;52.544;13.418;2023-05-20T02:09:44;7.83;;;4.90;;
62693;SDS011;48759;52.544;13.418;2023-05-20T02:12:11;7.87;;;5.17;;
62693;SDS011;48759;52.544;13.418;2023-05-20T02:14:42;7.83;;;5.37;;
62693;SDS011;48759;52.544;13.418;2023-05-20T02:17:09;12.57;;;5.53;;
62693;SDS011;48759;52.544;13.418;2023-05-20T02:19:36;7.37;;;5.00;;
62693;SDS011;48759;52.544;13.418;2023-05-20T02:22:03;5.47;;;4.83;;
62693;SDS011;48759;52.544;13.418;2023-05-20T02:24:30;5.70;;;5.07;;
62693;SDS011;48759;52.544;13.418;2023-05-20T02:26:57;8.83;;;5.50;;
62693;SDS011;48759;52.544;13.418;2023-05-20T02:29:23;5.47;;;4.97;;
62693;SDS011;48759;52.544;13.418;2023-05-20T02:31:51;7.60;;;5.17;;
62693;SDS011;48759;52.544;13.418;2023-05-20T02:34:19;8.23;;;5.60;;
62693;SDS011;48759;52.544;13.418;2023-05-20T02:36:46;6.57;;;4.70;;
62693;SDS011;48759;52.544;13.418;2023-05-20T02:39:13;10.53;;;5.10;;
62693;SDS011;48759;52.544;13.418;2023-05-20T02:41:39;8.13;;;4.80;;
62693;SDS011;48759;52.544;13.418;2023-05-20T02:44:06;11.10;;;4.90;;
62693;SDS011;48759;52.544;13.418;2023-05-20T02:46:33;5.90;;;4.57;;
62693;SDS011;48759;52.544;13.418;2023-05-20T02:49:04;14.00;;;6.67;;
62693;SDS011;48759;52.544;13.418;2023-05-20T02:51:31;7.40;;;4.77;;
62693;SDS011;48759;52.544;13.418;2023-05-20T02:53:58;7.80;;;6.03;;
62693;SDS011;48759;52.544;13.418;2023-05-20T02:56:25;14.50;;;5.63;;
62693;SDS011;48759;52.544;13.418;2023-05-20T02:58:52;5.90;;;4.67;;
62693;SDS011;48759;52.544;13.418;2023-05-20T03:01:19;7.20;;;5.93;;
62693;SDS011;48759;52.544;13.418;2023-05-20T03:03:46;5.53;;;4.77;;
62693;SDS011;48759;52.544;13.418;2023-05-20T03:06:14;7.67;;;5.00;;
62693;SDS011;48759;52.544;13.418;2023-05-20T03:08:41;6.53;;;4.67;;
62693;SDS011;48759;52.544;13.418;2023-05-20T03:11:07;7.73;;;4.83;;
62693;SDS011;48759;52.544;13.418;2023-05-20T03:13:34;10.40;;;6.33;;
62693;SDS011;48759;52.544;13.418;2023-05-20T03:16:01;7.40;;;5.30;;
62693;SDS011;48759;52.544;13.418;2023-05-20T03:18:28;9.20;;;4.73;;
62693;SDS011;48759;52.544;13.418;2023-05-20T03:20:55;10.83;;;5.10;;
62693;SDS011;48759;52.544;13.418;2023-05-20T03:23:23;7.60;;;5.47;;
62693;SDS011;48759;52.544;13.418;2023-05-20T03:25:50;8.00;;;5.30;;
62693;SDS011;48759;52.544;13.418;2023-05-20T03:28:16;5.53;;;4.90;;
62693;SDS011;48759;52.544;13.418;2023-05-20T03:30:43;6.13;;;5.07;;
62693;SDS011;48759;52.544;13.418;2023-05-20T03:33:10;7.20;;;5.70;;
62693;SDS011;48759;52.544;13.418;2023-05-20T03:35:37;7.67;;;4.83;;
62693;SDS011;48759;52.544;13.418;2023-05-20T03:38:04;7.00;;;5.13;;
62693;SDS011;48759;52.544;13.418;2023-05-20T03:40:32;6.20;;;4.90;;
62693;SDS011;48759;52.544;13.418;2023-05-20T03:42:58;6.63;;;4.90;;
62693;SDS011;48759;52.544;13.418;2023-05-20T03:45:25;4.83;;;4.43;;
62693;SDS011;48759;52.544;13.418;2023-05-20T03:47:53;13.17;;;4.90;;
62693;SDS011;48759;52.544;13.418;2023-05-20T03:50:20;8.23;;;4.80;;
62693;SDS011;48759;52.544;13.418;2023-05-20T03:52:47;8.67;;;5.10;;
62693;SDS011;48759;52.544;13.418;2023-05-20T03:55:13;9.33;;;4.80;;
62693;SDS011;48759;52.544;13.418;2023-05-20T03:57:42;11.30;;;4.77;;
62693;SDS011;48759;52.544;13.418;2023-05-20T04:00:09;9.33;;;4.80;;
62693;SDS011;48759;52.544;13.418;2023-05-20T04:02:38;7.57;;;4.63;;
62693;SDS011;48759;52.544;13.418;2023-05-20T04:05:06;5.27;;;4.77;;
62693;SDS011;48759;52.544;13.418;2023-05-20T04:07:34;9.37;;;4.70;;
62693;SDS011;48759;52.544;13.418;2023-05-20T04:10:01;6.40;;;4.27;;
62693;SDS011;48759;52.544;13.418;2023-05-20T04:12:28;6.20;;;4.80;;
62693;SDS011;48759;52.544;13.418;2023-05-20T04:14:58;8.10;;;4.50;;
62693;SDS011;48759;52.544;13.418;2023-05-20T04:17:26;5.53;;;4.60;;
62693;SDS011;48759;52.544;13.418;2023-05-20T04:19:54;6.80;;;4.97;;
62693;SDS011;48759;52.544;13.418;2023-05-20T04:22:21;9.50;;;4.83;;
62693;SDS011;48759;52.544;13.418;2023-05-20T04:24:48;5.47;;;4.40;;
62693;SDS011;48759;52.544;13.418;2023-05-20T04:27:15;5.43;;;4.30;;
62693;SDS011;48759;52.544;13.418;2023-05-20T04:29:41;7.07;;;5.60;;
62693;SDS011;48759;52.544;13.418;2023-05-20T04:32:13;9.33;;;5.00;;
62693;SDS011;48759;52.544;13.418;2023-05-20T04:34:42;6.00;;;4.93;;
62693;SDS011;48759;52.544;13.418;2023-05-20T04:37:10;15.80;;;5.60;;
62693;SDS011;48759;52.544;13.418;2023-05-20T04:39:37;7.47;;;5.30;;
62693;SDS011;48759;52.544;13.418;2023-05-20T04:42:04;6.27;;;4.93;;
62693;SDS011;48759;52.544;13.418;2023-05-20T04:44:31;7.10;;;5.60;;
62693;SDS011;48759;52.544;13.418;2023-05-20T04:46:58;8.03;;;5.10;;
62693;SDS011;48759;52.544;13.418;2023-05-20T04:49:26;8.67;;;5.10;;
62693;SDS011;48759;52.544;13.418;2023-05-20T04:51:54;7.73;;;5.17;;
62693;SDS011;48759;52.544;13.418;2023-05-20T04:54:20;10.30;;;4.70;;
62693;SDS011;48759;52.544;13.418;2023-05-20T04:56:47;6.70;;;4.87;;
62693;SDS011;48759;52.544;13.418;2023-05-20T04:59:15;8.30;;;6.00;;
62693;SDS011;48759;52.544;13.418;2023-05-20T05:01:42;8.17;;;4.90;;
62693;SDS011;48759;52.544;13.418;2023-05-20T05:04:09;5.83;;;5.00;;
62693;SDS011;48759;52.544;13.418;2023-05-20T05:06:37;7.97;;;4.57;;
62693;SDS011;48759;52.544;13.418;2023-05-20T05:09:04;7.90;;;5.40;;
62693;SDS011;48759;52.544;13.418;2023-05-20T05:11:32;7.40;;;5.10;;
62693;SDS011;48759;52.544;13.418;2023-05-20T05:13:58;6.43;;;5.40;;
62693;SDS011;48759;52.544;13.418;2023-05-20T05:16:25;8.33;;;5.10;;
62693;SDS011;48759;52.544;13.418;2023-05-20T05:18:52;9.87;;;5.43;;
62693;SDS011;48759;52.544;13.418;2023-05-20T05:21:18;6.47;;;5.10;;
62693;SDS011;48759;52.544;13.418;2023-05-20T05:23:47;7.70;;;4.83;;
62693;SDS011;48759;52.544;13.418;2023-05-20T05:26:13;9.23;;;6.30;;
62693;SDS011;48759;52.544;13.418;2023-05-20T05:28:40;9.80;;;6.30;;
62693;SDS011;48759;52.544;13.418;2023-05-20T05:31:09;7.87;;;5.80;;
62693;SDS011;48759;52.544;13.418;2023-05-20T05:33:36;6.70;;;4.90;;
62693;SDS011;48759;52.544;13.418;2023-05-20T05:36:03;11.27;;;7.20;;
62693;SDS011;48759;52.544;13.418;2023-05-20T05:38:30;7.20;;;4.70;;
62693;SDS011;48759;52.544;13.418;2023-05-20T05:40:58;10.17;;;5.30;;
62693;SDS011;48759;52.544;13.418;2023-05-20T05:43:25;9.53;;;5.97;;
62693;SDS011;48759;52.544;13.418;2023-05-20T05:45:52;10.10;;;5.80;;
62693;SDS011;48759;52.544;13.418;2023-05-20T05:48:20;9.40;;;5.80;;
62693;SDS011;48759;52.544;13.418;2023-05-20T05:50:47;10.77;;;5.80;;
62693;SDS011;48759;52.544;13.418;2023-05-20T05:53:13;8.20;;;5.40;;
62693;SDS011;48759;52.544;13.418;2023-05-20T05:55:40;14.37;;;5.80;;
62693;SDS011;48759;52.544;13.418;2023-05-20T05:58:08;10.63;;;5.90;;
62693;SDS011;48759;52.544;13.418;2023-05-20T06:00:35;7.60;;;5.90;;
62693;SDS011;48759;52.544;13.418;2023-05-20T06:03:01;8.47;;;6.40;;
62693;SDS011;48759;52.544;13.418;2023-05-20T06:05:28;11.43;;;6.03;;
62693;SDS011;48759;52.544;13.418;2023-05-20T06:07:56;10.57;;;5.67;;
62693;SDS011;48759;52.544;13.418;2023-05-20T06:10:22;8.53;;;5.63;;
62693;SDS011;48759;52.544;13.418;2023-05-20T06:12:49;6.70;;;6.00;;
62693;SDS011;48759;52.544;13.418;2023-05-20T06:15:17;8.97;;;6.50;;
62693;SDS011;48759;52.544;13.418;2023-05-20T06:17:44;8.63;;;5.97;;
62693;SDS011;48759;52.544;13.418;2023-05-20T06:20:11;12.80;;;5.20;;
62693;SDS011;48759;52.544;13.418;2023-05-20T06:22:38;10.07;;;5.70;;
62693;SDS011;48759;52.544;13.418;2023-05-20T06:25:05;8.20;;;5.77;;
62693;SDS011;48759;52.544;13.418;2023-05-20T06:27:33;9.97;;;5.27;;
62693;SDS011;48759;52.544;13.418;2023-05-20T06:30:00;21.00;;;6.30;;
62693;SDS011;48759;52.544;13.418;2023-05-20T06:32:28;9.03;;;5.90;;
62693;SDS011;48759;52.544;13.418;2023-05-20T06:34:55;8.40;;;5.40;;
62693;SDS011;48759;52.544;13.418;2023-05-20T06:37:22;7.43;;;5.53;;
62693;SDS011;48759;52.544;13.418;2023-05-20T06:39:49;14.30;;;6.67;;
62693;SDS011;48759;52.544;13.418;2023-05-20T06:42:17;9.80;;;6.50;;
62693;SDS011;48759;52.544;13.418;2023-05-20T06:44:44;9.00;;;5.80;;
62693;SDS011;48759;52.544;13.418;2023-05-20T06:47:12;11.63;;;7.10;;
62693;SDS011;48759;52.544;13.418;2023-05-20T06:49:41;8.93;;;5.73;;
62693;SDS011;48759;52.544;13.418;2023-05-20T06:52:08;7.90;;;6.33;;
62693;SDS011;48759;52.544;13.418;2023-05-20T06:54:36;7.17;;;5.53;;
62693;SDS011;48759;52.544;13.418;2023-05-20T06:57:05;15.23;;;6.50;;
62693;SDS011;48759;52.544;13.418;2023-05-20T06:59:33;10.90;;;6.03;;
62693;SDS011;48759;52.544;13.418;2023-05-20T07:02:02;8.70;;;6.10;;
62693;SDS011;48759;52.544;13.418;2023-05-20T07:04:29;12.13;;;6.57;;
62693;SDS011;48759;52.544;13.418;2023-05-20T07:06:57;12.33;;;6.30;;
62693;SDS011;48759;52.544;13.418;2023-05-20T07:09:24;11.67;;;6.27;;
62693;SDS011;48759;52.544;13.418;2023-05-20T07:11:51;9.60;;;6.50;;
62693;SDS011;48759;52.544;13.418;2023-05-20T07:14:18;15.73;;;6.43;;
62693;SDS011;48759;52.544;13.418;2023-05-20T07:16:44;9.33;;;6.07;;
62693;SDS011;48759;52.544;13.418;2023-05-20T07:19:11;8.30;;;6.03;;
62693;SDS011;48759;52.544;13.418;2023-05-20T07:21:38;10.07;;;6.20;;
62693;SDS011;48759;52.544;13.418;2023-05-20T07:24:06;9.30;;;6.53;;
62693;SDS011;48759;52.544;13.418;2023-05-20T07:26:33;13.93;;;6.23;;
62693;SDS011;48759;52.544;13.418;2023-05-20T07:29:00;10.77;;;6.10;;
62693;SDS011;48759;52.544;13.418;2023-05-20T07:31:27;10.60;;;6.50;;
62693;SDS011;48759;52.544;13.418;2023-05-20T07:33:54;8.57;;;6.03;;
62693;SDS011;48759;52.544;13.418;2023-05-20T07:36:21;6.80;;;5.80;;
62693;SDS011;48759;52.544;13.418;2023-05-20T07:38:48;8.00;;;5.47;;
62693;SDS011;48759;52.544;13.418;2023-05-20T07:41:17;10.23;;;6.23;;
62693;SDS011;48759;52.544;13.418;2023-05-20T07:43:44;8.43;;;6.40;;
62693;SDS011;48759;52.544;13.418;2023-05-20T07:46:11;9.20;;;6.30;;
62693;SDS011;48759;52.544;13.418;2023-05-20T07:48:37;6.93;;;5.87;;
62693;SDS011;48759;52.544;13.418;2023-05-20T07:51:04;9.70;;;6.67;;
62693;SDS011;48759;52.544;13.418;2023-05-20T07:53:31;7.30;;;6.00;;
62693;SDS011;48759;52.544;13.418;2023-05-20T07:55:58;7.10;;;6.20;;
62693;SDS011;48759;52.544;13.418;2023-05-20T07:58:27;9.83;;;5.57;;
62693;SDS011;48759;52.544;13.418;2023-05-20T08:00:55;7.83;;;5.63;;
62693;SDS011;48759;52.544;13.418;2023-05-20T08:03:22;9.03;;;6.40;;
62693;SDS011;48759;52.544;13.418;2023-05-20T08:05:49;8.03;;;6.40;;
62693;SDS011;48759;52.544;13.418;2023-05-20T08:08:15;6.47;;;5.73;;
62693;SDS011;48759;52.544;13.418;2023-05-20T08:10:42;8.60;;;6.20;;
62693;SDS011;48759;52.544;13.418;2023-05-20T08:13:08;8.30;;;6.90;;
62693;SDS011;48759;52.544;13.418;2023-05-20T08:15:37;10.83;;;6.10;;
62693;SDS011;48759;52.544;13.418;2023-05-20T08:18:03;8.60;;;6.03;;
62693;SDS011;48759;52.544;13.418;2023-05-20T08:20:30;7.70;;;6.27;;
62693;SDS011;48759;52.544;13.418;2023-05-20T08:22:57;10.97;;;7.67;;
62693;SDS011;48759;52.544;13.418;2023-05-20T08:25:24;12.00;;;7.17;;
62693;SDS011;48759;52.544;13.418;2023-05-20T08:27:51;10.97;;;6.83;;
62693;SDS011;48759;52.544;13.418;2023-05-20T08:30:17;6.90;;;5.73;;
62693;SDS011;48759;52.544;13.418;2023-05-20T08:32:46;9.03;;;5.67;;
62693;SDS011;48759;52.544;13.418;2023-05-20T08:35:13;9.40;;;7.40;;
62693;SDS011;48759;52.544;13.418;2023-05-20T08:37:40;8.77;;;7.30;;
62693;SDS011;48759;52.544;13.418;2023-05-20T08:40:08;7.43;;;5.70;;
62693;SDS011;48759;52.544;13.418;2023-05-20T08:42:39;6.73;;;5.77;;
62693;SDS011;48759;52.544;13.418;2023-05-20T08:45:07;8.03;;;5.50;;
62693;SDS011;48759;52.544;13.418;2023-05-20T08:47:37;11.93;;;6.40;;
62693;SDS011;48759;52.544;13.418;2023-05-20T08:50:09;8.60;;;5.67;;
62693;SDS011;48759;52.544;13.418;2023-05-20T08:52:37;7.93;;;5.37;;
62693;SDS011;48759;52.544;13.418;2023-05-20T08:55:08;7.67;;;5.40;;
62693;SDS011;48759;52.544;13.418;2023-05-20T08:57:39;7.70;;;5.67;;
62693;SDS011;48759;52.544;13.418;2023-05-20T09:00:10;6.93;;;5.53;;
62693;SDS011;48759;52.544;13.418;2023-05-20T09:02:40;9.50;;;5.83;;
62693;SDS011;48759;52.544;13.418;2023-05-20T09:05:08;7.00;;;5.40;;
62693;SDS011;48759;52.544;13.418;2023-05-20T09:07:37;6.60;;;5.80;;
62693;SDS011;48759;52.544;13.418;2023-05-20T09:10:03;6.60;;;5.33;;
62693;SDS011;48759;52.544;13.418;2023-05-20T09:12:31;9.10;;;6.33;;
62693;SDS011;48759;52.544;13.418;2023-05-20T09:14:57;12.90;;;6.10;;
62693;SDS011;48759;52.544;13.418;2023-05-20T09:17:24;6.10;;;5.50;;
62693;SDS011;48759;52.544;13.418;2023-05-20T09:19:51;6.17;;;5.07;;
62693;SDS011;48759;52.544;13.418;2023-05-20T09:22:23;5.80;;;5.07;;
62693;SDS011;48759;52.544;13.418;2023-05-20T09:24:50;8.53;;;6.20;;
62693;SDS011;48759;52.544;13.418;2023-05-20T09:27:19;7.17;;;5.90;;
62693;SDS011;48759;52.544;13.418;2023-05-20T09:29:48;15.53;;;7.13;;
62693;SDS011;48759;52.544;13.418;2023-05-20T09:32:15;8.90;;;5.90;;
62693;SDS011;48759;52.544;13.418;2023-05-20T09:34:44;6.07;;;5.30;;
62693;SDS011;48759;52.544;13.418;2023-05-20T09:37:13;6.57;;;5.97;;
62693;SDS011;48759;52.544;13.418;2023-05-20T09:39:45;7.03;;;5.63;;
62693;SDS011;48759;52.544;13.418;2023-05-20T09:42:22;10.60;;;6.73;;
62693;SDS011;48759;52.544;13.418;2023-05-20T09:44:53;9.20;;;6.43;;
62693;SDS011;48759;52.544;13.418;2023-05-20T09:47:21;8.17;;;6.70;;
62693;SDS011;48759;52.544;13.418;2023-05-20T09:49:49;9.50;;;7.20;;
62693;SDS011;48759;52.544;13.418;2023-05-20T09:52:17;12.60;;;7.57;;
62693;SDS011;48759;52.544;13.418;2023-05-20T09:54:46;9.53;;;7.97;;
62693;SDS011;48759;52.544;13.418;2023-05-20T09:57:14;7.43;;;6.63;;
62693;SDS011;48759;52.544;13.418;2023-05-20T09:59:41;8.30;;;7.40;;
62693;SDS011;48759;52.544;13.418;2023-05-20T10:02:09;9.70;;;7.27;;
62693;SDS011;48759;52.544;13.418;2023-05-20T10:04:36;10.37;;;7.10;;
62693;SDS011;48759;52.544;13.418;2023-05-20T10:10:24;9.33;;;7.70;;
62693;SDS011;48759;52.544;13.418;2023-05-20T10:13:07;16.27;;;8.20;;
62693;SDS011;48759;52.544;13.418;2023-05-20T10:15:46;9.40;;;8.10;;
62693;SDS011;48759;52.544;13.418;2023-05-20T10:18:28;10.33;;;7.73;;
62693;SDS011;48759;52.544;13.418;2023-05-20T10:21:13;8.80;;;7.90;;
62693;SDS011;48759;52.544;13.418;2023-05-20T10:23:41;10.07;;;8.50;;
62693;SDS011;48759;52.544;13.418;2023-05-20T10:26:09;10.50;;;7.97;;
62693;SDS011;48759;52.544;13.418;2023-05-20T10:28:36;9.90;;;8.57;;
62693;SDS011;48759;52.544;13.418;2023-05-20T10:31:13;10.57;;;8.10;;
62693;SDS011;48759;52.544;13.418;2023-05-20T10:33:41;14.00;;;8.73;;
62693;SDS011;48759;52.544;13.418;2023-05-20T10:36:08;12.00;;;8.53;;
62693;SDS011;48759;52.544;13.418;2023-05-20T10:38:35;10.73;;;7.53;;
62693;SDS011;48759;52.544;13.418;2023-05-20T10:41:06;11.17;;;7.80;;
62693;SDS011;48759;52.544;13.418;2023-05-20T10:43:36;12.80;;;7.77;;
62693;SDS011;48759;52.544;13.418;2023-05-20T10:46:03;14.57;;;8.13;;
62693;SDS011;48759;52.544;13.418;2023-05-20T10:48:30;12.07;;;8.50;;
62693;SDS011;48759;52.544;13.418;2023-05-20T10:50:58;11.60;;;8.43;;
62693;SDS011;48759;52.544;13.418;2023-05-20T10:53:28;9.60;;;7.53;;
62693;SDS011;48759;52.544;13.418;2023-05-20T10:55:55;10.03;;;8.10;;
62693;SDS011;48759;52.544;13.418;2023-05-20T10:58:23;8.97;;;8.07;;
62693;SDS011;48759;52.544;13.418;2023-05-20T11:00:52;11.20;;;9.37;;
62693;SDS011;48759;52.544;13.418;2023-05-20T11:03:20;10.90;;;9.30;;
62693;SDS011;48759;52.544;13.418;2023-05-20T11:05:47;12.40;;;8.33;;
62693;SDS011;48759;52.544;13.418;2023-05-20T11:08:15;14.57;;;8.70;;
62693;SDS011;48759;52.544;13.418;2023-05-20T11:10:42;10.20;;;8.60;;
62693;SDS011;48759;52.544;13.418;2023-05-20T11:13:10;14.20;;;7.87;;
62693;SDS011;48759;52.544;13.418;2023-05-20T11:15:39;9.90;;;7.83;;
62693;SDS011;48759;52.544;13.418;2023-05-20T11:18:09;18.10;;;9.70;;
62693;SDS011;48759;52.544;13.418;2023-05-20T11:20:37;10.53;;;8.60;;
62693;SDS011;48759;52.544;13.418;2023-05-20T11:23:04;10.63;;;8.20;;
62693;SDS011;48759;52.544;13.418;2023-05-20T11:25:31;11.07;;;8.00;;
62693;SDS011;48759;52.544;13.418;2023-05-20T11:27:58;12.83;;;8.40;;
62693;SDS011;48759;52.544;13.418;2023-05-20T11:30:25;11.13;;;8.23;;
62693;SDS011;48759;52.544;13.418;2023-05-20T11:32:56;10.93;;;7.80;;
62693;SDS011;48759;52.544;13.418;2023-05-20T11:35:25;15.93;;;8.87;;
62693;SDS011;48759;52.544;13.418;2023-05-20T11:37:53;11.40;;;8.80;;
62693;SDS011;48759;52.544;13.418;2023-05-20T11:40:25;10.27;;;7.50;;
62693;SDS011;48759;52.544;13.418;2023-05-20T11:42:53;11.03;;;7.77;;
62693;SDS011;48759;52.544;13.418;2023-05-20T11:45:20;12.63;;;8.00;;
62693;SDS011;48759;52.544;13.418;2023-05-20T11:47:58;10.10;;;7.30;;
62693;SDS011;48759;52.544;13.418;2023-05-20T11:50:32;10.50;;;7.40;;
62693;SDS011;48759;52.544;13.418;2023-05-20T11:53:01;8.63;;;7.60;;
62693;SDS011;48759;52.544;13.418;2023-05-20T11:55:30;10.10;;;7.40;;
62693;SDS011;48759;52.544;13.418;2023-05-20T11:57:57;11.10;;;8.10;;
62693;SDS011;48759;52.544;13.418;2023-05-20T12:00:24;8.30;;;7.40;;
62693;SDS011;48759;52.544;13.418;2023-05-20T12:02:51;8.97;;;8.07;;
62693;SDS011;48759;52.544;13.418;2023-05-20T12:05:19;11.30;;;8.00;;
62693;SDS011;48759;52.544;13.418;2023-05-20T12:07:46;9.73;;;8.00;;
62693;SDS011;48759;52.544;13.418;2023-05-20T12:10:12;11.50;;;9.40;;
62693;SDS011;48759;52.544;13.418;2023-05-20T12:12:39;11.73;;;9.17;;
62693;SDS011;48759;52.544;13.418;2023-05-20T12:15:06;9.20;;;7.93;;
62693;SDS011;48759;52.544;13.418;2023-05-20T12:17:42;11.40;;;9.13;;
62693;SDS011;48759;52.544;13.418;2023-05-20T12:20:10;17.70;;;9.23;;
62693;SDS011;48759;52.544;13.418;2023-05-20T12:22:40;14.60;;;8.50;;
62693;SDS011;48759;52.544;13.418;2023-05-20T12:25:07;12.00;;;9.17;;
62693;SDS011;48759;52.544;13.418;2023-05-20T12:27:36;11.00;;;8.60;;
62693;SDS011;48759;52.544;13.418;2023-05-20T12:30:03;12.67;;;8.57;;
62693;SDS011;48759;52.544;13.418;2023-05-20T12:32:30;16.43;;;8.50;;
62693;SDS011;48759;52.544;13.418;2023-05-20T12:34:57;11.40;;;9.00;;
62693;SDS011;48759;52.544;13.418;2023-05-20T12:37:24;14.70;;;9.73;;
62693;SDS011;48759;52.544;13.418;2023-05-20T12:39:52;13.20;;;7.73;;
62693;SDS011;48759;52.544;13.418;2023-05-20T12:42:19;13.30;;;10.20;;
62693;SDS011;48759;52.544;13.418;2023-05-20T12:44:46;11.73;;;8.93;;
62693;SDS011;48759;52.544;13.418;2023-05-20T12:47:12;12.20;;;9.07;;
62693;SDS011;48759;52.544;13.418;2023-05-20T12:49:41;10.90;;;8.73;;
62693;SDS011;48759;52.544;13.418;2023-05-20T12:52:07;13.90;;;9.40;;
62693;SDS011;48759;52.544;13.418;2023-05-20T12:54:34;17.90;;;9.00;;
62693;SDS011;48759;52.544;13.418;2023-05-20T12:57:02;15.90;;;9.90;;
62693;SDS011;48759;52.544;13.418;2023-05-20T12:59:29;11.30;;;8.90;;
62693;SDS011;48759;52.544;13.418;2023-05-20T13:01:56;14.67;;;8.50;;
62693;SDS011;48759;52.544;13.418;2023-05-20T13:04:23;12.63;;;9.23;;
62693;SDS011;48759;52.544;13.418;2023-05-20T13:06:49;10.73;;;9.20;;
62693;SDS011;48759;52.544;13.418;2023-05-20T13:09:16;14.40;;;9.33;;
62693;SDS011;48759;52.544;13.418;2023-05-20T13:11:43;12.27;;;9.13;;
62693;SDS011;48759;52.544;13.418;2023-05-20T13:14:11;10.47;;;9.37;;
62693;SDS011;48759;52.544;13.418;2023-05-20T13:16:38;9.83;;;8.27;;
62693;SDS011;48759;52.544;13.418;2023-05-20T13:19:05;10.10;;;8.40;;
62693;SDS011;48759;52.544;13.418;2023-05-20T13:21:32;22.10;;;13.00;;
62693;SDS011;48759;52.544;13.418;2023-05-20T13:23:59;10.97;;;9.70;;
62693;SDS011;48759;52.544;13.418;2023-05-20T13:26:26;10.83;;;8.50;;
62693;SDS011;48759;52.544;13.418;2023-05-20T13:28:53;11.00;;;8.70;;
62693;SDS011;48759;52.544;13.418;2023-05-20T13:31:21;10.57;;;7.60;;
62693;SDS011;48759;52.544;13.418;2023-05-20T13:33:48;12.13;;;8.53;;
62693;SDS011;48759;52.544;13.418;2023-05-20T13:36:17;11.23;;;9.00;;
62693;SDS011;48759;52.544;13.418;2023-05-20T13:38:43;14.43;;;9.47;;
62693;SDS011;48759;52.544;13.418;2023-05-20T13:41:10;11.17;;;8.53;;
62693;SDS011;48759;52.544;13.418;2023-05-20T13:43:37;15.90;;;8.50;;
62693;SDS011;48759;52.544;13.418;2023-05-20T13:46:06;11.53;;;7.60;;
62693;SDS011;48759;52.544;13.418;2023-05-20T13:48:34;9.00;;;8.10;;
62693;SDS011;48759;52.544;13.418;2023-05-20T13:51:01;10.10;;;8.40;;
62693;SDS011;48759;52.544;13.418;2023-05-20T13:53:27;8.77;;;7.70;;
62693;SDS011;48759;52.544;13.418;2023-05-20T13:55:54;10.20;;;7.57;;
62693;SDS011;48759;52.544;13.418;2023-05-20T13:58:21;7.53;;;6.83;;
62693;SDS011;48759;52.544;13.418;2023-05-20T14:00:47;9.23;;;6.93;;
62693;SDS011;48759;52.544;13.418;2023-05-20T14:03:14;9.23;;;7.07;;
62693;SDS011;48759;52.544;13.418;2023-05-20T14:05:45;8.63;;;7.30;;
62693;SDS011;48759;52.544;13.418;2023-05-20T14:08:14;12.77;;;8.13;;
62693;SDS011;48759;52.544;13.418;2023-05-20T14:10:41;8.50;;;7.00;;
62693;SDS011;48759;52.544;13.418;2023-05-20T14:13:07;8.17;;;7.17;;
62693;SDS011;48759;52.544;13.418;2023-05-20T14:15:34;9.23;;;7.07;;
62693;SDS011;48759;52.544;13.418;2023-05-20T14:18:01;9.80;;;7.90;;
62693;SDS011;48759;52.544;13.418;2023-05-20T14:20:28;10.27;;;6.70;;
62693;SDS011;48759;52.544;13.418;2023-05-20T14:22:57;8.60;;;6.67;;
62693;SDS011;48759;52.544;13.418;2023-05-20T14:25:24;6.77;;;6.07;;
62693;SDS011;48759;52.544;13.418;2023-05-20T14:27:51;8.43;;;6.57;;
62693;SDS011;48759;52.544;13.418;2023-05-20T14:30:20;7.63;;;6.80;;
62693;SDS011;48759;52.544;13.418;2023-05-20T14:32:46;7.40;;;6.00;;
62693;SDS011;48759;52.544;13.418;2023-05-20T14:35:13;8.03;;;7.13;;
62693;SDS011;48759;52.544;13.418;2023-05-20T14:37:42;6.17;;;5.57;;